Bassetts Creek, Alabama
Current Conditions -  °F | °C
As of 8:56 PM on Friday 21 Nov 2014 (Local Time) from KMOB Reporting Station
Few Clouds Few Clouds  
Wind Chill: 48°   Ceiling: Unl
Heat Index: 48°   Visibility: 10mi
Dew Point: 46°   Wind: 0mph
Humidity: 93%   Direction: NA
Pressure: 30.3"   Gusts: NA
Location:  31.3942°N, 88.065°W
Report Text: KMOB 220256Z 00000KT 10SM FEW200 09/08 A3030 RMK AO2 SLP260 T00890078 50000
Loading
Personal Weather Stations






























Interactive Weather Map New forecast layout! Learn more

10-Day Weather Forecast

Advertisements
Track Severe Weather on mobile